Funafuti, Tuvalu
Current Conditions -  °F | °C
As of 7:00 AM on Saturday 25 Oct 2014 (Local Time) from NGFU Reporting Station
Scattered Clouds Scattered Clouds  
Wind Chill: 86°   Ceiling: Unl
Heat Index: 97°   Visibility: 6mi
Dew Point: 77°   Wind: 2mph
Humidity: 74%   Direction: NA
Pressure: 29.85"   Gusts: NA
Location:  8.52°S, 179.19°E
Report Text: NGFU 241900Z VRB02KT 9999 SCT020TCU 30/25 Q1011
Loading
Personal Weather Stations






























Interactive Weather Map
Tropical Storm Tracking
New forecast layout! Learn more

10-Day Weather Forecast

Advertisements
Track Severe Weather on mobile